sensor_id;sensor_type;location;lat;lon;timestamp;P1;durP1;ratioP1;P2;durP2;ratioP2
37997;SDS011;24079;51.824;4.682;2023-03-08T00:00:32;8.50;;;4.22;;
37997;SDS011;24079;51.824;4.682;2023-03-08T00:02:58;8.73;;;4.07;;
37997;SDS011;24079;51.824;4.682;2023-03-08T00:05:24;7.90;;;4.43;;
37997;SDS011;24079;51.824;4.682;2023-03-08T00:07:52;9.88;;;4.25;;
37997;SDS011;24079;51.824;4.682;2023-03-08T00:10:18;13.45;;;4.45;;
37997;SDS011;24079;51.824;4.682;2023-03-08T00:12:44;12.63;;;4.43;;
37997;SDS011;24079;51.824;4.682;2023-03-08T00:15:10;10.30;;;4.38;;
37997;SDS011;24079;51.824;4.682;2023-03-08T00:17:36;11.88;;;4.53;;
37997;SDS011;24079;51.824;4.682;2023-03-08T00:20:03;7.28;;;4.13;;
37997;SDS011;24079;51.824;4.682;2023-03-08T00:22:37;10.20;;;4.28;;
37997;SDS011;24079;51.824;4.682;2023-03-08T00:25:04;11.98;;;4.20;;
37997;SDS011;24079;51.824;4.682;2023-03-08T00:27:30;11.23;;;4.03;;
37997;SDS011;24079;51.824;4.682;2023-03-08T00:29:56;9.45;;;3.95;;
37997;SDS011;24079;51.824;4.682;2023-03-08T00:32:25;11.88;;;4.32;;
37997;SDS011;24079;51.824;4.682;2023-03-08T00:34:51;10.90;;;4.53;;
37997;SDS011;24079;51.824;4.682;2023-03-08T00:37:17;10.65;;;3.78;;
37997;SDS011;24079;51.824;4.682;2023-03-08T00:39:43;8.55;;;4.07;;
37997;SDS011;24079;51.824;4.682;2023-03-08T00:42:09;11.38;;;4.07;;
37997;SDS011;24079;51.824;4.682;2023-03-08T00:44:35;8.35;;;4.00;;
37997;SDS011;24079;51.824;4.682;2023-03-08T00:47:00;10.73;;;4.90;;
37997;SDS011;24079;51.824;4.682;2023-03-08T00:49:26;12.13;;;4.97;;
37997;SDS011;24079;51.824;4.682;2023-03-08T00:51:52;8.82;;;4.90;;
37997;SDS011;24079;51.824;4.682;2023-03-08T00:54:18;11.50;;;5.15;;
37997;SDS011;24079;51.824;4.682;2023-03-08T00:56:44;16.08;;;4.85;;
37997;SDS011;24079;51.824;4.682;2023-03-08T00:59:09;11.75;;;5.68;;
37997;SDS011;24079;51.824;4.682;2023-03-08T01:01:35;12.85;;;5.10;;
37997;SDS011;24079;51.824;4.682;2023-03-08T01:04:00;10.02;;;5.43;;
37997;SDS011;24079;51.824;4.682;2023-03-08T01:06:27;11.98;;;5.35;;
37997;SDS011;24079;51.824;4.682;2023-03-08T01:08:53;10.18;;;5.68;;
37997;SDS011;24079;51.824;4.682;2023-03-08T01:11:20;11.85;;;5.47;;
37997;SDS011;24079;51.824;4.682;2023-03-08T01:13:48;11.27;;;6.80;;
37997;SDS011;24079;51.824;4.682;2023-03-08T01:16:18;13.05;;;6.97;;
37997;SDS011;24079;51.824;4.682;2023-03-08T01:18:47;14.93;;;7.85;;
37997;SDS011;24079;51.824;4.682;2023-03-08T01:21:12;16.48;;;7.78;;
37997;SDS011;24079;51.824;4.682;2023-03-08T01:23:38;15.35;;;9.32;;
37997;SDS011;24079;51.824;4.682;2023-03-08T01:26:05;17.42;;;9.98;;
37997;SDS011;24079;51.824;4.682;2023-03-08T01:28:36;19.17;;;9.57;;
37997;SDS011;24079;51.824;4.682;2023-03-08T01:31:05;13.98;;;9.57;;
37997;SDS011;24079;51.824;4.682;2023-03-08T01:33:33;13.63;;;9.40;;
37997;SDS011;24079;51.824;4.682;2023-03-08T01:36:01;15.82;;;9.85;;
37997;SDS011;24079;51.824;4.682;2023-03-08T01:38:31;14.95;;;9.90;;
37997;SDS011;24079;51.824;4.682;2023-03-08T01:40:57;19.77;;;11.73;;
37997;SDS011;24079;51.824;4.682;2023-03-08T01:43:28;19.05;;;13.10;;
37997;SDS011;24079;51.824;4.682;2023-03-08T01:54:00;24.50;;;13.43;;
37997;SDS011;24079;51.824;4.682;2023-03-08T01:56:30;22.95;;;14.80;;
37997;SDS011;24079;51.824;4.682;2023-03-08T01:58:57;24.70;;;15.50;;
37997;SDS011;24079;51.824;4.682;2023-03-08T02:01:24;22.60;;;15.93;;
37997;SDS011;24079;51.824;4.682;2023-03-08T02:03:49;26.73;;;18.33;;
37997;SDS011;24079;51.824;4.682;2023-03-08T02:06:16;28.02;;;18.10;;
37997;SDS011;24079;51.824;4.682;2023-03-08T02:08:43;29.33;;;17.50;;
37997;SDS011;24079;51.824;4.682;2023-03-08T02:11:10;26.33;;;18.10;;
37997;SDS011;24079;51.824;4.682;2023-03-08T02:13:36;31.35;;;18.40;;
37997;SDS011;24079;51.824;4.682;2023-03-08T02:16:03;28.73;;;16.85;;
37997;SDS011;24079;51.824;4.682;2023-03-08T02:18:34;26.05;;;16.90;;
37997;SDS011;24079;51.824;4.682;2023-03-08T02:20:59;27.67;;;16.58;;
37997;SDS011;24079;51.824;4.682;2023-03-08T02:23:26;26.23;;;16.55;;
37997;SDS011;24079;51.824;4.682;2023-03-08T02:25:53;33.45;;;17.75;;
37997;SDS011;24079;51.824;4.682;2023-03-08T02:28:22;30.88;;;18.52;;
37997;SDS011;24079;51.824;4.682;2023-03-08T02:30:49;30.58;;;18.20;;
37997;SDS011;24079;51.824;4.682;2023-03-08T02:33:16;36.05;;;19.23;;
37997;SDS011;24079;51.824;4.682;2023-03-08T02:35:43;44.40;;;20.83;;
37997;SDS011;24079;51.824;4.682;2023-03-08T02:38:10;44.22;;;21.40;;
37997;SDS011;24079;51.824;4.682;2023-03-08T02:40:38;41.80;;;21.40;;
37997;SDS011;24079;51.824;4.682;2023-03-08T02:43:04;42.47;;;22.77;;
37997;SDS011;24079;51.824;4.682;2023-03-08T02:45:30;43.05;;;22.77;;
37997;SDS011;24079;51.824;4.682;2023-03-08T02:47:57;40.38;;;21.70;;
37997;SDS011;24079;51.824;4.682;2023-03-08T02:50:27;44.03;;;23.92;;
37997;SDS011;24079;51.824;4.682;2023-03-08T02:52:53;47.40;;;23.05;;
37997;SDS011;24079;51.824;4.682;2023-03-08T02:55:19;43.15;;;23.13;;
37997;SDS011;24079;51.824;4.682;2023-03-08T02:57:45;44.42;;;23.33;;
37997;SDS011;24079;51.824;4.682;2023-03-08T03:00:11;42.50;;;23.60;;
37997;SDS011;24079;51.824;4.682;2023-03-08T03:02:38;41.67;;;23.88;;
37997;SDS011;24079;51.824;4.682;2023-03-08T03:05:05;50.47;;;25.52;;
37997;SDS011;24079;51.824;4.682;2023-03-08T03:07:35;47.45;;;25.25;;
37997;SDS011;24079;51.824;4.682;2023-03-08T03:10:07;33.80;;;19.10;;
37997;SDS011;24079;51.824;4.682;2023-03-08T03:12:34;50.83;;;23.38;;
37997;SDS011;24079;51.824;4.682;2023-03-08T03:15:00;48.67;;;24.85;;
37997;SDS011;24079;51.824;4.682;2023-03-08T03:17:27;44.53;;;24.15;;
37997;SDS011;24079;51.824;4.682;2023-03-08T03:19:53;43.63;;;24.50;;
37997;SDS011;24079;51.824;4.682;2023-03-08T03:22:19;41.50;;;24.42;;
37997;SDS011;24079;51.824;4.682;2023-03-08T03:24:45;46.47;;;25.30;;
37997;SDS011;24079;51.824;4.682;2023-03-08T03:27:11;41.38;;;24.95;;
37997;SDS011;24079;51.824;4.682;2023-03-08T03:29:37;43.15;;;25.70;;
37997;SDS011;24079;51.824;4.682;2023-03-08T03:32:03;44.33;;;26.02;;
37997;SDS011;24079;51.824;4.682;2023-03-08T03:34:28;43.55;;;26.00;;
37997;SDS011;24079;51.824;4.682;2023-03-08T03:36:54;43.15;;;26.45;;
37997;SDS011;24079;51.824;4.682;2023-03-08T03:39:20;48.25;;;28.33;;
37997;SDS011;24079;51.824;4.682;2023-03-08T03:41:46;45.75;;;26.65;;
37997;SDS011;24079;51.824;4.682;2023-03-08T03:44:11;45.92;;;28.23;;
37997;SDS011;24079;51.824;4.682;2023-03-08T03:46:37;52.70;;;30.20;;
37997;SDS011;24079;51.824;4.682;2023-03-08T03:49:03;45.80;;;29.35;;
37997;SDS011;24079;51.824;4.682;2023-03-08T03:51:28;45.53;;;29.60;;
37997;SDS011;24079;51.824;4.682;2023-03-08T03:53:54;47.95;;;29.48;;
37997;SDS011;24079;51.824;4.682;2023-03-08T03:56:23;51.45;;;31.58;;
37997;SDS011;24079;51.824;4.682;2023-03-08T03:58:50;53.33;;;34.40;;
37997;SDS011;24079;51.824;4.682;2023-03-08T04:01:20;52.88;;;33.15;;
37997;SDS011;24079;51.824;4.682;2023-03-08T04:03:51;53.38;;;33.38;;
37997;SDS011;24079;51.824;4.682;2023-03-08T04:06:27;51.53;;;33.47;;
37997;SDS011;24079;51.824;4.682;2023-03-08T04:08:55;56.25;;;34.13;;
37997;SDS011;24079;51.824;4.682;2023-03-08T04:11:27;52.30;;;34.38;;
37997;SDS011;24079;51.824;4.682;2023-03-08T04:13:56;57.58;;;35.55;;
37997;SDS011;24079;51.824;4.682;2023-03-08T04:16:26;59.50;;;35.75;;
37997;SDS011;24079;51.824;4.682;2023-03-08T04:18:53;57.20;;;35.58;;
37997;SDS011;24079;51.824;4.682;2023-03-08T04:21:20;60.35;;;37.67;;
37997;SDS011;24079;51.824;4.682;2023-03-08T04:23:46;71.40;;;38.95;;
37997;SDS011;24079;51.824;4.682;2023-03-08T04:26:12;71.53;;;40.80;;
37997;SDS011;24079;51.824;4.682;2023-03-08T04:28:38;68.18;;;41.28;;
37997;SDS011;24079;51.824;4.682;2023-03-08T04:31:16;68.03;;;41.67;;
37997;SDS011;24079;51.824;4.682;2023-03-08T04:33:42;64.50;;;40.65;;
37997;SDS011;24079;51.824;4.682;2023-03-08T04:36:09;67.25;;;41.03;;
37997;SDS011;24079;51.824;4.682;2023-03-08T04:38:35;73.53;;;43.78;;
37997;SDS011;24079;51.824;4.682;2023-03-08T04:41:01;67.13;;;40.78;;
37997;SDS011;24079;51.824;4.682;2023-03-08T04:43:33;76.07;;;44.00;;
37997;SDS011;24079;51.824;4.682;2023-03-08T04:45:59;82.50;;;45.08;;
37997;SDS011;24079;51.824;4.682;2023-03-08T04:48:25;74.32;;;44.47;;
37997;SDS011;24079;51.824;4.682;2023-03-08T04:50:55;73.55;;;43.42;;
37997;SDS011;24079;51.824;4.682;2023-03-08T04:53:22;79.00;;;45.37;;
37997;SDS011;24079;51.824;4.682;2023-03-08T04:55:49;78.45;;;46.58;;
37997;SDS011;24079;51.824;4.682;2023-03-08T04:58:15;84.78;;;46.10;;
37997;SDS011;24079;51.824;4.682;2023-03-08T05:00:41;83.32;;;46.75;;
37997;SDS011;24079;51.824;4.682;2023-03-08T05:03:07;83.38;;;47.00;;
37997;SDS011;24079;51.824;4.682;2023-03-08T05:05:33;79.43;;;45.75;;
37997;SDS011;24079;51.824;4.682;2023-03-08T05:07:58;84.03;;;46.53;;
37997;SDS011;24079;51.824;4.682;2023-03-08T05:10:28;76.85;;;44.88;;
37997;SDS011;24079;51.824;4.682;2023-03-08T05:12:55;81.38;;;45.42;;
37997;SDS011;24079;51.824;4.682;2023-03-08T05:15:21;85.55;;;46.78;;
37997;SDS011;24079;51.824;4.682;2023-03-08T05:17:50;82.70;;;44.25;;
37997;SDS011;24079;51.824;4.682;2023-03-08T05:20:15;73.93;;;42.33;;
37997;SDS011;24079;51.824;4.682;2023-03-08T05:22:42;77.60;;;43.67;;
37997;SDS011;24079;51.824;4.682;2023-03-08T05:25:08;75.38;;;41.40;;
37997;SDS011;24079;51.824;4.682;2023-03-08T05:27:35;77.13;;;42.88;;
37997;SDS011;24079;51.824;4.682;2023-03-08T05:30:01;80.45;;;42.53;;
37997;SDS011;24079;51.824;4.682;2023-03-08T05:32:30;87.80;;;41.90;;
37997;SDS011;24079;51.824;4.682;2023-03-08T05:34:56;83.22;;;40.75;;
37997;SDS011;24079;51.824;4.682;2023-03-08T05:37:21;78.60;;;39.92;;
37997;SDS011;24079;51.824;4.682;2023-03-08T05:39:49;77.20;;;40.28;;
37997;SDS011;24079;51.824;4.682;2023-03-08T05:42:16;83.28;;;41.40;;
37997;SDS011;24079;51.824;4.682;2023-03-08T05:44:42;79.80;;;41.20;;
37997;SDS011;24079;51.824;4.682;2023-03-08T05:47:07;77.13;;;41.85;;
37997;SDS011;24079;51.824;4.682;2023-03-08T05:49:33;85.80;;;41.88;;
37997;SDS011;24079;51.824;4.682;2023-03-08T05:51:59;84.93;;;40.00;;
37997;SDS011;24079;51.824;4.682;2023-03-08T05:54:24;93.05;;;41.53;;
37997;SDS011;24079;51.824;4.682;2023-03-08T05:56:50;91.43;;;41.92;;
37997;SDS011;24079;51.824;4.682;2023-03-08T05:59:15;90.70;;;42.95;;
37997;SDS011;24079;51.824;4.682;2023-03-08T06:01:42;129.70;;;45.55;;
37997;SDS011;24079;51.824;4.682;2023-03-08T06:04:07;111.22;;;44.92;;
37997;SDS011;24079;51.824;4.682;2023-03-08T06:06:33;97.72;;;42.75;;
37997;SDS011;24079;51.824;4.682;2023-03-08T06:08:59;106.03;;;44.72;;
37997;SDS011;24079;51.824;4.682;2023-03-08T06:11:24;108.75;;;46.85;;
37997;SDS011;24079;51.824;4.682;2023-03-08T06:13:50;106.47;;;45.40;;
37997;SDS011;24079;51.824;4.682;2023-03-08T06:16:16;105.55;;;45.60;;
37997;SDS011;24079;51.824;4.682;2023-03-08T06:18:43;100.95;;;45.63;;
37997;SDS011;24079;51.824;4.682;2023-03-08T06:21:12;104.18;;;46.95;;
37997;SDS011;24079;51.824;4.682;2023-03-08T06:23:40;101.07;;;45.35;;
37997;SDS011;24079;51.824;4.682;2023-03-08T06:26:06;111.47;;;47.85;;
37997;SDS011;24079;51.824;4.682;2023-03-08T06:28:32;104.40;;;45.85;;
37997;SDS011;24079;51.824;4.682;2023-03-08T06:30:58;111.18;;;47.25;;
37997;SDS011;24079;51.824;4.682;2023-03-08T06:33:29;96.70;;;43.45;;
37997;SDS011;24079;51.824;4.682;2023-03-08T06:36:00;94.90;;;43.08;;
37997;SDS011;24079;51.824;4.682;2023-03-08T06:38:28;85.32;;;41.20;;
37997;SDS011;24079;51.824;4.682;2023-03-08T06:40:55;87.57;;;39.65;;
37997;SDS011;24079;51.824;4.682;2023-03-08T06:43:21;90.15;;;40.58;;
37997;SDS011;24079;51.824;4.682;2023-03-08T06:45:47;92.70;;;43.55;;
37997;SDS011;24079;51.824;4.682;2023-03-08T06:48:13;86.45;;;40.25;;
37997;SDS011;24079;51.824;4.682;2023-03-08T06:50:39;89.78;;;42.60;;
37997;SDS011;24079;51.824;4.682;2023-03-08T06:53:05;96.18;;;43.42;;
37997;SDS011;24079;51.824;4.682;2023-03-08T06:55:31;88.70;;;43.20;;
37997;SDS011;24079;51.824;4.682;2023-03-08T07:00:28;78.15;;;38.55;;
37997;SDS011;24079;51.824;4.682;2023-03-08T07:02:54;95.53;;;42.97;;
37997;SDS011;24079;51.824;4.682;2023-03-08T07:05:20;88.22;;;41.00;;
37997;SDS011;24079;51.824;4.682;2023-03-08T07:07:46;86.53;;;42.45;;
37997;SDS011;24079;51.824;4.682;2023-03-08T07:10:13;91.10;;;40.33;;
37997;SDS011;24079;51.824;4.682;2023-03-08T07:12:40;87.20;;;40.13;;
37997;SDS011;24079;51.824;4.682;2023-03-08T07:15:11;78.88;;;39.20;;
37997;SDS011;24079;51.824;4.682;2023-03-08T07:17:41;83.07;;;39.45;;
37997;SDS011;24079;51.824;4.682;2023-03-08T07:20:08;86.65;;;39.38;;
37997;SDS011;24079;51.824;4.682;2023-03-08T07:22:34;68.90;;;32.90;;
37997;SDS011;24079;51.824;4.682;2023-03-08T07:25:00;73.70;;;34.70;;
37997;SDS011;24079;51.824;4.682;2023-03-08T07:27:25;72.55;;;35.20;;
37997;SDS011;24079;51.824;4.682;2023-03-08T07:29:51;66.90;;;31.98;;
37997;SDS011;24079;51.824;4.682;2023-03-08T07:32:18;68.20;;;31.70;;
37997;SDS011;24079;51.824;4.682;2023-03-08T07:34:44;64.38;;;31.63;;
37997;SDS011;24079;51.824;4.682;2023-03-08T07:37:13;64.28;;;30.90;;
37997;SDS011;24079;51.824;4.682;2023-03-08T07:39:41;65.93;;;30.93;;
37997;SDS011;24079;51.824;4.682;2023-03-08T07:42:07;61.03;;;28.75;;
37997;SDS011;24079;51.824;4.682;2023-03-08T07:44:34;57.05;;;29.05;;
37997;SDS011;24079;51.824;4.682;2023-03-08T07:47:02;59.50;;;29.40;;
37997;SDS011;24079;51.824;4.682;2023-03-08T07:49:29;57.88;;;27.90;;
37997;SDS011;24079;51.824;4.682;2023-03-08T07:51:55;59.75;;;27.77;;
37997;SDS011;24079;51.824;4.682;2023-03-08T07:54:22;59.55;;;27.73;;
37997;SDS011;24079;51.824;4.682;2023-03-08T07:56:48;58.92;;;28.60;;
37997;SDS011;24079;51.824;4.682;2023-03-08T07:59:16;52.33;;;25.75;;
37997;SDS011;24079;51.824;4.682;2023-03-08T08:01:42;45.42;;;24.08;;
37997;SDS011;24079;51.824;4.682;2023-03-08T08:04:09;43.28;;;23.25;;
37997;SDS011;24079;51.824;4.682;2023-03-08T08:06:37;45.08;;;23.08;;
37997;SDS011;24079;51.824;4.682;2023-03-08T08:09:04;48.17;;;25.75;;
37997;SDS011;24079;51.824;4.682;2023-03-08T08:11:30;48.53;;;26.67;;
37997;SDS011;24079;51.824;4.682;2023-03-08T08:13:56;48.47;;;25.77;;
37997;SDS011;24079;51.824;4.682;2023-03-08T08:16:22;54.88;;;28.17;;
37997;SDS011;24079;51.824;4.682;2023-03-08T08:18:50;51.22;;;28.05;;
37997;SDS011;24079;51.824;4.682;2023-03-08T08:21:16;48.20;;;26.33;;
37997;SDS011;24079;51.824;4.682;2023-03-08T08:23:42;46.95;;;26.00;;
37997;SDS011;24079;51.824;4.682;2023-03-08T08:26:09;47.03;;;26.75;;
37997;SDS011;24079;51.824;4.682;2023-03-08T08:28:40;48.47;;;26.40;;
37997;SDS011;24079;51.824;4.682;2023-03-08T08:31:08;48.20;;;26.60;;
37997;SDS011;24079;51.824;4.682;2023-03-08T08:33:35;53.17;;;28.50;;
37997;SDS011;24079;51.824;4.682;2023-03-08T08:36:02;51.05;;;28.17;;
37997;SDS011;24079;51.824;4.682;2023-03-08T08:38:30;48.58;;;27.42;;
37997;SDS011;24079;51.824;4.682;2023-03-08T08:40:59;48.55;;;26.00;;
37997;SDS011;24079;51.824;4.682;2023-03-08T08:43:28;50.70;;;27.80;;
37997;SDS011;24079;51.824;4.682;2023-03-08T08:45:55;54.40;;;27.88;;
37997;SDS011;24079;51.824;4.682;2023-03-08T08:48:23;49.72;;;27.65;;
37997;SDS011;24079;51.824;4.682;2023-03-08T08:50:49;50.72;;;27.92;;
37997;SDS011;24079;51.824;4.682;2023-03-08T08:53:16;55.17;;;29.23;;
37997;SDS011;24079;51.824;4.682;2023-03-08T08:55:42;54.10;;;29.13;;
37997;SDS011;24079;51.824;4.682;2023-03-08T08:58:08;50.20;;;27.52;;
37997;SDS011;24079;51.824;4.682;2023-03-08T09:00:35;48.53;;;27.98;;
37997;SDS011;24079;51.824;4.682;2023-03-08T09:03:02;44.60;;;25.15;;
37997;SDS011;24079;51.824;4.682;2023-03-08T09:05:29;46.75;;;26.58;;
37997;SDS011;24079;51.824;4.682;2023-03-08T09:07:56;43.03;;;25.58;;
37997;SDS011;24079;51.824;4.682;2023-03-08T09:10:24;39.47;;;23.80;;
37997;SDS011;24079;51.824;4.682;2023-03-08T09:12:52;40.85;;;24.90;;
37997;SDS011;24079;51.824;4.682;2023-03-08T09:15:18;40.78;;;24.20;;
37997;SDS011;24079;51.824;4.682;2023-03-08T09:17:46;37.10;;;22.08;;
37997;SDS011;24079;51.824;4.682;2023-03-08T09:20:12;40.22;;;23.98;;
37997;SDS011;24079;51.824;4.682;2023-03-08T09:22:38;40.65;;;23.27;;
37997;SDS011;24079;51.824;4.682;2023-03-08T09:25:07;40.35;;;23.27;;
37997;SDS011;24079;51.824;4.682;2023-03-08T09:27:35;40.58;;;23.02;;
37997;SDS011;24079;51.824;4.682;2023-03-08T09:30:01;38.38;;;22.52;;
37997;SDS011;24079;51.824;4.682;2023-03-08T09:32:27;40.70;;;22.75;;
37997;SDS011;24079;51.824;4.682;2023-03-08T09:34:53;40.20;;;23.88;;
37997;SDS011;24079;51.824;4.682;2023-03-08T09:37:18;36.22;;;21.35;;
37997;SDS011;24079;51.824;4.682;2023-03-08T09:39:44;34.03;;;19.75;;
37997;SDS011;24079;51.824;4.682;2023-03-08T09:42:15;28.13;;;17.33;;
37997;SDS011;24079;51.824;4.682;2023-03-08T09:50:16;30.98;;;18.70;;
37997;SDS011;24079;51.824;4.682;2023-03-08T09:52:57;27.08;;;17.63;;
37997;SDS011;24079;51.824;4.682;2023-03-08T09:55:46;29.73;;;15.68;;
37997;SDS011;24079;51.824;4.682;2023-03-08T09:58:18;25.97;;;16.00;;
37997;SDS011;24079;51.824;4.682;2023-03-08T10:00:56;26.65;;;14.57;;
37997;SDS011;24079;51.824;4.682;2023-03-08T10:09:50;22.83;;;12.35;;
37997;SDS011;24079;51.824;4.682;2023-03-08T10:12:11;19.50;;;11.60;;
37997;SDS011;24079;51.824;4.682;2023-03-08T10:14:49;21.48;;;12.45;;
37997;SDS011;24079;51.824;4.682;2023-03-08T10:17:20;19.65;;;12.07;;
37997;SDS011;24079;51.824;4.682;2023-03-08T10:20:10;16.92;;;11.00;;
37997;SDS011;24079;51.824;4.682;2023-03-08T10:22:57;18.05;;;10.20;;
37997;SDS011;24079;51.824;4.682;2023-03-08T10:25:31;15.55;;;9.32;;
37997;SDS011;24079;51.824;4.682;2023-03-08T10:28:04;17.38;;;10.07;;
37997;SDS011;24079;51.824;4.682;2023-03-08T10:30:49;16.52;;;9.50;;
37997;SDS011;24079;51.824;4.682;2023-03-08T10:33:16;16.85;;;9.80;;
37997;SDS011;24079;51.824;4.682;2023-03-08T10:35:57;15.95;;;8.95;;
37997;SDS011;24079;51.824;4.682;2023-03-08T10:38:32;16.92;;;10.02;;
37997;SDS011;24079;51.824;4.682;2023-03-08T10:41:03;16.23;;;9.27;;
37997;SDS011;24079;51.824;4.682;2023-03-08T10:43:51;12.43;;;7.63;;
37997;SDS011;24079;51.824;4.682;2023-03-08T10:46:21;16.40;;;8.65;;
37997;SDS011;24079;51.824;4.682;2023-03-08T10:48:49;12.88;;;7.15;;
37997;SDS011;24079;51.824;4.682;2023-03-08T10:51:16;14.35;;;8.27;;
37997;SDS011;24079;51.824;4.682;2023-03-08T10:54:00;14.43;;;8.20;;
37997;SDS011;24079;51.824;4.682;2023-03-08T10:56:35;16.52;;;8.48;;
37997;SDS011;24079;51.824;4.682;2023-03-08T10:59:03;15.40;;;8.90;;
37997;SDS011;24079;51.824;4.682;2023-03-08T11:01:31;14.40;;;9.10;;
37997;SDS011;24079;51.824;4.682;2023-03-08T11:04:11;17.20;;;10.00;;
37997;SDS011;24079;51.824;4.682;2023-03-08T11:06:39;15.32;;;9.65;;
37997;SDS011;24079;51.824;4.682;2023-03-08T11:09:18;15.27;;;8.77;;
37997;SDS011;24079;51.824;4.682;2023-03-08T11:11:49;15.27;;;9.65;;
37997;SDS011;24079;51.824;4.682;2023-03-08T11:14:16;15.23;;;9.77;;
37997;SDS011;24079;51.824;4.682;2023-03-08T11:27:15;17.00;;;12.13;;
37997;SDS011;24079;51.824;4.682;2023-03-08T11:29:59;16.70;;;11.27;;
37997;SDS011;24079;51.824;4.682;2023-03-08T11:32:33;18.58;;;11.85;;
37997;SDS011;24079;51.824;4.682;2023-03-08T11:35:07;20.05;;;12.32;;
37997;SDS011;24079;51.824;4.682;2023-03-08T11:38:01;21.08;;;11.43;;
37997;SDS011;24079;51.824;4.682;2023-03-08T11:57:37;14.43;;;9.38;;
37997;SDS011;24079;51.824;4.682;2023-03-08T12:00:27;15.77;;;9.27;;
37997;SDS011;24079;51.824;4.682;2023-03-08T12:03:22;18.60;;;10.02;;
37997;SDS011;24079;51.824;4.682;2023-03-08T12:32:30;19.13;;;10.48;;
37997;SDS011;24079;51.824;4.682;2023-03-08T12:35:04;17.23;;;10.48;;
37997;SDS011;24079;51.824;4.682;2023-03-08T12:40:44;18.40;;;11.68;;
37997;SDS011;24079;51.824;4.682;2023-03-08T12:43:27;18.75;;;12.35;;
37997;SDS011;24079;51.824;4.682;2023-03-08T12:58:48;18.20;;;11.02;;
37997;SDS011;24079;51.824;4.682;2023-03-08T13:01:37;16.40;;;10.48;;
37997;SDS011;24079;51.824;4.682;2023-03-08T13:04:06;19.83;;;11.93;;
37997;SDS011;24079;51.824;4.682;2023-03-08T13:09:35;17.98;;;11.07;;
37997;SDS011;24079;51.824;4.682;2023-03-08T13:14:44;17.48;;;10.85;;
37997;SDS011;24079;51.824;4.682;2023-03-08T13:17:47;18.08;;;10.45;;
37997;SDS011;24079;51.824;4.682;2023-03-08T13:20:24;17.77;;;10.30;;
37997;SDS011;24079;51.824;4.682;2023-03-08T13:28:05;17.15;;;10.57;;
37997;SDS011;24079;51.824;4.682;2023-03-08T13:33:20;23.27;;;11.90;;
37997;SDS011;24079;51.824;4.682;2023-03-08T13:38:28;18.90;;;10.80;;
37997;SDS011;24079;51.824;4.682;2023-03-08T13:40:56;19.00;;;10.82;;
37997;SDS011;24079;51.824;4.682;2023-03-08T13:43:25;17.23;;;10.90;;
37997;SDS011;24079;51.824;4.682;2023-03-08T13:46:09;17.75;;;11.02;;
37997;SDS011;24079;51.824;4.682;2023-03-08T13:48:41;16.52;;;9.77;;
37997;SDS011;24079;51.824;4.682;2023-03-08T13:51:08;16.20;;;9.95;;
37997;SDS011;24079;51.824;4.682;2023-03-08T13:53:41;17.58;;;10.55;;
37997;SDS011;24079;51.824;4.682;2023-03-08T13:56:07;17.98;;;10.82;;
37997;SDS011;24079;51.824;4.682;2023-03-08T14:01:17;19.08;;;10.40;;
37997;SDS011;24079;51.824;4.682;2023-03-08T14:03:47;20.92;;;10.50;;
37997;SDS011;24079;51.824;4.682;2023-03-08T14:08:53;20.52;;;11.27;;
37997;SDS011;24079;51.824;4.682;2023-03-08T14:11:25;23.38;;;11.40;;
37997;SDS011;24079;51.824;4.682;2023-03-08T14:13:59;17.45;;;10.70;;
37997;SDS011;24079;51.824;4.682;2023-03-08T14:18:59;17.02;;;10.52;;
37997;SDS011;24079;51.824;4.682;2023-03-08T14:22:00;18.77;;;11.07;;
37997;SDS011;24079;51.824;4.682;2023-03-08T14:24:29;18.35;;;10.77;;
37997;SDS011;24079;51.824;4.682;2023-03-08T14:30:02;17.88;;;10.95;;
37997;SDS011;24079;51.824;4.682;2023-03-08T14:32:36;21.33;;;11.55;;
37997;SDS011;24079;51.824;4.682;2023-03-08T14:35:14;19.50;;;12.13;;
37997;SDS011;24079;51.824;4.682;2023-03-08T14:37:49;22.33;;;12.45;;
37997;SDS011;24079;51.824;4.682;2023-03-08T14:43:25;22.40;;;12.02;;
37997;SDS011;24079;51.824;4.682;2023-03-08T14:45:59;20.35;;;12.02;;
37997;SDS011;24079;51.824;4.682;2023-03-08T14:53:30;21.80;;;12.67;;
37997;SDS011;24079;51.824;4.682;2023-03-08T14:56:11;22.13;;;12.07;;
37997;SDS011;24079;51.824;4.682;2023-03-08T14:58:40;20.15;;;12.23;;
37997;SDS011;24079;51.824;4.682;2023-03-08T15:01:30;24.77;;;13.15;;
37997;SDS011;24079;51.824;4.682;2023-03-08T15:03:59;22.85;;;12.85;;
37997;SDS011;24079;51.824;4.682;2023-03-08T15:06:27;24.80;;;14.20;;
37997;SDS011;24079;51.824;4.682;2023-03-08T15:08:56;24.00;;;15.45;;
37997;SDS011;24079;51.824;4.682;2023-03-08T15:11:23;22.83;;;13.30;;
37997;SDS011;24079;51.824;4.682;2023-03-08T15:13:51;25.33;;;14.80;;
37997;SDS011;24079;51.824;4.682;2023-03-08T15:16:18;29.95;;;16.35;;
37997;SDS011;24079;51.824;4.682;2023-03-08T15:18:44;27.35;;;16.17;;
37997;SDS011;24079;51.824;4.682;2023-03-08T15:21:14;29.92;;;16.25;;
37997;SDS011;24079;51.824;4.682;2023-03-08T15:23:43;23.52;;;13.80;;
37997;SDS011;24079;51.824;4.682;2023-03-08T15:26:12;22.77;;;14.40;;
37997;SDS011;24079;51.824;4.682;2023-03-08T15:28:43;24.63;;;13.95;;
37997;SDS011;24079;51.824;4.682;2023-03-08T15:31:08;23.38;;;13.02;;
37997;SDS011;24079;51.824;4.682;2023-03-08T15:33:34;23.55;;;13.57;;
37997;SDS011;24079;51.824;4.682;2023-03-08T15:36:00;21.75;;;12.73;;
37997;SDS011;24079;51.824;4.682;2023-03-08T15:38:25;22.52;;;12.40;;
37997;SDS011;24079;51.824;4.682;2023-03-08T15:40:51;23.25;;;12.18;;
37997;SDS011;24079;51.824;4.682;2023-03-08T15:43:17;23.77;;;13.15;;
37997;SDS011;24079;51.824;4.682;2023-03-08T15:45:43;24.92;;;13.43;;
37997;SDS011;24079;51.824;4.682;2023-03-08T15:48:14;25.42;;;14.70;;
37997;SDS011;24079;51.824;4.682;2023-03-08T15:53:08;23.95;;;13.65;;
37997;SDS011;24079;51.824;4.682;2023-03-08T15:55:35;19.17;;;12.07;;
37997;SDS011;24079;51.824;4.682;2023-03-08T15:58:03;21.45;;;12.90;;
37997;SDS011;24079;51.824;4.682;2023-03-08T16:00:29;23.67;;;14.13;;
37997;SDS011;24079;51.824;4.682;2023-03-08T16:02:55;21.58;;;12.88;;
37997;SDS011;24079;51.824;4.682;2023-03-08T16:05:21;24.70;;;14.35;;
37997;SDS011;24079;51.824;4.682;2023-03-08T16:07:59;25.05;;;15.20;;
37997;SDS011;24079;51.824;4.682;2023-03-08T16:10:32;24.33;;;13.75;;
37997;SDS011;24079;51.824;4.682;2023-03-08T16:13:05;26.02;;;14.93;;
37997;SDS011;24079;51.824;4.682;2023-03-08T16:15:32;30.77;;;17.02;;
37997;SDS011;24079;51.824;4.682;2023-03-08T16:17:57;32.50;;;17.73;;
37997;SDS011;24079;51.824;4.682;2023-03-08T16:20:24;31.30;;;17.52;;
37997;SDS011;24079;51.824;4.682;2023-03-08T16:22:50;30.58;;;17.58;;
37997;SDS011;24079;51.824;4.682;2023-03-08T16:25:17;28.42;;;17.08;;
37997;SDS011;24079;51.824;4.682;2023-03-08T16:27:43;29.50;;;17.33;;
37997;SDS011;24079;51.824;4.682;2023-03-08T16:30:10;31.33;;;17.02;;
37997;SDS011;24079;51.824;4.682;2023-03-08T16:32:36;30.30;;;17.38;;
37997;SDS011;24079;51.824;4.682;2023-03-08T16:35:02;31.70;;;18.65;;
37997;SDS011;24079;51.824;4.682;2023-03-08T16:37:28;33.53;;;18.48;;
37997;SDS011;24079;51.824;4.682;2023-03-08T16:39:54;29.75;;;17.63;;
37997;SDS011;24079;51.824;4.682;2023-03-08T16:42:23;30.42;;;16.10;;